Weather History for KCIR - June, 2013

Change the Weather History Date:

Thursday, June 20, 2013

  Actual Average Record
Temperature  
Mean Temperature 82 °F -  
Max Temperature 93 °F 88 °F 102 °F (1953)
Min Temperature 71 °F 67 °F 52 °F (1992)
Cooling Degree Days 17    
Growing Degree Days 32 (Base 50)    
Moisture  
Dew Point 68 °F    
Average Humidity 64    
Maximum Humidity 89    
Minimum Humidity 38    
Precipitation  
Precipitation 0.00 in - - ()
Sea Level Pressure  
Sea Level Pressure 30.09 in    
Wind  
Wind Speed 3 mph (SE)    
Max Wind Speed 9 mph    
Max Gust Speed -    
Visibility 10 miles    
Events      
Averages and records for this station are not official NWS values.
T = Trace of Precipitation, MM = Missing Value Source: NWS Daily Summary

Daily Weather History Graph

Daily Weather History Graph

Search for Another Location

Airport or City:

Trip Planner

Search our weather history database for the weather conditions in past years. The results will help you decide how hot, cold, wet, or windy it might be!

Date:

Astronomy

Jun. 20, 2013 Rise Set
Actual Time 5:37 AM CDT 8:19 PM CDT
Civil Twilight 5:06 AM CDT 8:50 PM CDT
Nautical Twilight 4:27 AM CDT 9:29 PM CDT
Astronomical Twilight 3:44 AM CDT 10:12 PM CDT
Moon 5:24 PM CDT (6/20) 3:00 AM CDT (6/20)
Length of Visible Light 15h 44m
Length of Day
14h 42m
Waxing Gibbous, 89% of the Moon is Illuminated
Jun 20
Waxing Gibbous
Jun 23
Full
Jun 29
Last Quarter
Jul 8
New
Jul 15
First Quarter

Hourly Weather History & Observations

Time (CDT) Temp. Heat Index Dew Point Humidity Pressure Visibility Wind Dir Wind Speed Gust Speed Precip Events Conditions
12:15 AM 74.8 °F - 70.3 °F 86% 30.06 in 10.0 mi Calm Calm - N/A   Clear
12:35 AM 74.7 °F - 70.3 °F 86% 30.06 in 7.0 mi Calm Calm - N/A   Clear
12:55 AM 74.7 °F - 70.3 °F 86% 30.06 in 10.0 mi Calm Calm - N/A   Clear
1:15 AM 74.1 °F - 69.6 °F 86% 30.06 in 10.0 mi NNE 3.5 mph - N/A   Clear
1:35 AM 73.6 °F - 69.1 °F 86% 30.06 in 10.0 mi NNE 3.5 mph - N/A   Clear
1:55 AM 73.6 °F - 69.1 °F 86% 30.06 in 10.0 mi Calm Calm - N/A   Clear
2:15 AM 73.0 °F - 68.5 °F 86% 30.06 in 10.0 mi NNE 3.5 mph - N/A   Clear
2:35 AM 73.2 °F - 68.9 °F 86% 30.06 in 10.0 mi Calm Calm - N/A   Scattered Clouds
2:55 AM 72.7 °F - 68.5 °F 87% 30.07 in 10.0 mi Calm Calm - N/A   Scattered Clouds
3:15 AM 72.9 °F - 68.9 °F 87% 30.07 in 10.0 mi Calm Calm - N/A   Clear
3:35 AM 72.5 °F - 68.4 °F 87% 30.06 in 7.0 mi NE 3.5 mph - N/A   Clear
3:55 AM 72.1 °F - 68.2 °F 87% 30.06 in 10.0 mi Calm Calm - N/A   Clear
4:15 AM 71.8 °F - 68.0 °F 88% 30.07 in 7.0 mi Calm Calm - N/A   Clear
4:35 AM 71.6 °F - 67.8 °F 88% 30.07 in 7.0 mi Calm Calm - N/A   Clear
4:55 AM 71.6 °F - 68.0 °F 88% 30.08 in 10.0 mi Calm Calm - N/A   Clear
5:15 AM 71.6 °F - 67.6 °F 87% 30.08 in 10.0 mi Calm Calm - N/A   Clear
5:35 AM 71.1 °F - 67.3 °F 88% 30.09 in 7.0 mi NE 3.5 mph - N/A   Clear
5:55 AM 71.6 °F - 68.0 °F 88% 30.09 in 5.0 mi Calm Calm - N/A   Clear
6:15 AM 71.6 °F - 68.2 °F 89% 30.09 in 5.0 mi Calm Calm - N/A   Clear
6:35 AM 72.7 °F - 69.3 °F 89% 30.10 in 5.0 mi NE 3.5 mph - N/A   Clear
6:55 AM 73.8 °F - 70.2 °F 88% 30.10 in 7.0 mi Calm Calm - N/A   Clear
7:15 AM 75.6 °F - 70.7 °F 85% 30.11 in 10.0 mi Calm Calm - N/A   Clear
7:35 AM 77.4 °F - 70.2 °F 78% 30.12 in 10.0 mi ENE 3.5 mph - N/A   Clear
7:55 AM 79.2 °F - 69.4 °F 72% 30.13 in 10.0 mi East 3.5 mph - N/A   Clear
8:15 AM 80.1 °F 82.9 °F 69.1 °F 69% 30.13 in 10.0 mi ESE 3.5 mph - N/A   Clear
8:35 AM 80.6 °F 83.6 °F 69.3 °F 68% 30.13 in 10.0 mi East 3.5 mph - N/A   Clear
8:55 AM 81.7 °F 85.1 °F 69.3 °F 66% 30.13 in 10.0 mi ESE 3.5 mph - N/A   Clear
9:15 AM 82.9 °F 86.7 °F 69.6 °F 64% 30.14 in 10.0 mi SSE 4.6 mph - N/A   Clear
9:35 AM 83.5 °F 87.4 °F 69.6 °F 63% 30.13 in 10.0 mi South 3.5 mph - N/A   Clear
9:55 AM 84.4 °F 88.7 °F 70.0 °F 62% 30.13 in 10.0 mi South 3.5 mph - N/A   Clear
10:15 AM 86.0 °F 90.7 °F 70.2 °F 59% 30.13 in 10.0 mi SSE 5.8 mph - N/A   Clear
10:35 AM 87.1 °F 91.6 °F 69.6 °F 56% 30.14 in 10.0 mi SSE 5.8 mph - N/A   Clear
10:55 AM 88.2 °F 92.5 °F 68.9 °F 53% 30.14 in 10.0 mi South 4.6 mph - N/A   Clear
11:15 AM 88.9 °F 92.6 °F 68.2 °F 50% 30.14 in 10.0 mi South 5.8 mph - N/A   Clear
11:35 AM 89.4 °F 92.7 °F 67.6 °F 48% 30.14 in 10.0 mi South 5.8 mph - N/A   Clear
11:55 AM 90.3 °F 93.9 °F 67.8 °F 47% 30.13 in 10.0 mi South 4.6 mph - N/A   Clear
12:15 PM 90.3 °F 93.9 °F 67.5 °F 47% 30.13 in 10.0 mi South 5.8 mph - N/A   Clear
12:35 PM 90.7 °F 93.6 °F 66.7 °F 45% 30.13 in 10.0 mi SSE 4.6 mph - N/A   Clear
12:55 PM 90.9 °F 93.5 °F 66.0 °F 44% 30.12 in 10.0 mi South 4.6 mph - N/A   Clear
1:15 PM 91.0 °F 94.3 °F 66.7 °F 45% 30.12 in 10.0 mi SSW 4.6 mph - N/A   Clear
1:35 PM 91.4 °F 94.9 °F 67.3 °F 45% 30.12 in 10.0 mi ESE 6.9 mph - N/A   Clear
1:55 PM 92.1 °F 94.8 °F 66.2 °F 42% 30.11 in 10.0 mi SE 5.8 mph - N/A   Clear
2:15 PM 92.1 °F 94.8 °F 65.8 °F 42% 30.11 in 10.0 mi South 4.6 mph - N/A   Clear
2:35 PM 90.7 °F 93.2 °F 66.0 °F 44% 30.10 in 10.0 mi SE 5.8 mph - N/A   Clear
2:55 PM 92.3 °F 95.1 °F 66.2 °F 42% 30.10 in 10.0 mi SSE 4.6 mph - N/A   Clear
3:15 PM 92.3 °F 95.1 °F 65.8 °F 42% 30.10 in 10.0 mi ESE 3.5 mph - N/A   Clear
3:35 PM 92.3 °F 94.3 °F 64.6 °F 40% 30.09 in 10.0 mi SSE 6.9 mph - N/A   Clear
3:55 PM 92.8 °F 95.6 °F 66.2 °F 41% 30.09 in 10.0 mi South 5.8 mph - N/A   Clear
4:15 PM 92.5 °F 94.6 °F 65.1 °F 40% 30.08 in 10.0 mi Calm Calm - N/A   Clear
4:35 PM 93.2 °F 95.3 °F 64.9 °F 39% 30.07 in 10.0 mi East 9.2 mph - N/A   Clear
4:55 PM 92.7 °F 94.0 °F 63.9 °F 38% 30.07 in 10.0 mi SE 8.1 mph - N/A   Clear
5:15 PM 91.9 °F 93.7 °F 64.8 °F 40% 30.07 in 10.0 mi ESE 8.1 mph - N/A   Clear
5:35 PM 91.9 °F 94.1 °F 64.9 °F 41% 30.06 in 10.0 mi ESE 8.1 mph - N/A   Clear
5:55 PM 91.6 °F 93.5 °F 64.9 °F 41% 30.06 in 10.0 mi ESE 6.9 mph - N/A   Clear
6:15 PM 90.9 °F 93.1 °F 65.3 °F 43% 30.06 in 10.0 mi ESE 8.1 mph - N/A   Clear
6:35 PM 90.0 °F 92.4 °F 66.2 °F 45% 30.06 in 10.0 mi ESE 6.9 mph - N/A   Clear
6:55 PM 89.6 °F 93.0 °F 67.6 °F 48% 30.07 in 10.0 mi ESE 6.9 mph - N/A   Clear
7:15 PM 88.5 °F 92.7 °F 68.7 °F 52% 30.07 in 10.0 mi ESE 8.1 mph - N/A   Clear
7:35 PM 86.9 °F 91.0 °F 68.9 °F 55% 30.07 in 10.0 mi ESE 8.1 mph - N/A   Clear
7:55 PM 85.5 °F 88.8 °F 68.4 °F 56% 30.07 in 10.0 mi ESE 6.9 mph - N/A   Clear
8:15 PM 84.0 °F 87.8 °F 69.3 °F 61% 30.07 in 10.0 mi ESE 5.8 mph - N/A   Clear
8:35 PM 82.6 °F 86.4 °F 69.8 °F 65% 30.08 in 10.0 mi ESE 4.6 mph - N/A   Clear
8:55 PM 81.5 °F 85.1 °F 70.0 °F 68% 30.08 in 10.0 mi ESE 4.6 mph - N/A   Clear
9:15 PM 81.1 °F 84.7 °F 70.2 °F 69% 30.09 in 10.0 mi ESE 4.6 mph - N/A   Clear
9:35 PM 80.8 °F 84.2 °F 70.2 °F 70% 30.09 in 10.0 mi ESE 5.8 mph - N/A   Clear
9:55 PM 80.6 °F 83.8 °F 69.6 °F 69% 30.10 in 10.0 mi SE 5.8 mph - N/A   Clear
10:15 PM 80.6 °F 83.2 °F 68.0 °F 65% 30.10 in 10.0 mi SE 4.6 mph - N/A   Scattered Clouds
10:35 PM 80.6 °F 83.1 °F 67.5 °F 64% 30.11 in 10.0 mi SE 6.9 mph - N/A   Scattered Clouds
10:55 PM 80.6 °F 83.1 °F 67.3 °F 64% 30.11 in 10.0 mi SE 6.9 mph - N/A   Clear
11:15 PM 80.6 °F 83.1 °F 67.5 °F 64% 30.11 in 10.0 mi SE 5.8 mph - N/A   Clear
11:35 PM 80.1 °F 82.6 °F 67.6 °F 66% 30.11 in 10.0 mi ESE 8.1 mph - N/A   Clear
11:55 PM 79.2 °F - 67.8 °F 68% 30.11 in 10.0 mi SE 4.6 mph - N/A   Clear